createdAt,value
2022-10-23T00:00:42.886Z,101282.31
2022-10-23T00:02:05.690Z,101286.91
2022-10-23T00:03:08.578Z,101290.93
2022-10-23T00:04:16.081Z,101288.04
2022-10-23T00:05:18.965Z,101288.41
2022-10-23T00:06:21.911Z,101291.81
2022-10-23T00:07:24.793Z,101291.70
2022-10-23T00:08:27.673Z,101296.11
2022-10-23T00:09:30.467Z,101295.53
2022-10-23T00:10:33.345Z,101295.61
2022-10-23T00:11:36.622Z,101296.35
2022-10-23T00:12:39.675Z,101297.64
2022-10-23T00:13:42.780Z,101294.63
2022-10-23T00:14:45.574Z,101302.23
2022-10-23T00:15:48.441Z,101302.34
2022-10-23T00:16:51.910Z,101298.98
2022-10-23T00:17:54.860Z,101297.09
2022-10-23T00:18:58.899Z,101295.64
2022-10-23T00:20:01.787Z,101297.63
2022-10-23T00:21:05.784Z,101299.23
2022-10-23T00:22:08.700Z,101298.58
2022-10-23T00:23:11.536Z,101296.41
2022-10-23T00:24:14.584Z,101296.21
2022-10-23T00:25:18.603Z,101296.46
2022-10-23T00:26:21.422Z,101299.63
2022-10-23T00:27:24.518Z,101300.13
2022-10-23T00:28:27.373Z,101303.56
2022-10-23T00:29:30.380Z,101300.48
2022-10-23T00:30:33.233Z,101298.80
2022-10-23T00:31:36.658Z,101302.45
2022-10-23T00:32:39.495Z,101300.86
2022-10-23T00:33:42.715Z,101301.16
2022-10-23T00:34:45.935Z,101301.16
2022-10-23T00:35:48.738Z,101300.99
2022-10-23T00:36:51.516Z,101300.78
2022-10-23T00:37:54.362Z,101301.95
2022-10-23T00:38:57.217Z,101304.39
2022-10-23T00:40:00.073Z,101303.60
2022-10-23T00:41:03.032Z,101305.15
2022-10-23T00:42:06.037Z,101309.42
2022-10-23T00:43:16.676Z,101308.52
2022-10-23T00:44:22.631Z,101305.94
2022-10-23T00:45:27.154Z,101304.07
2022-10-23T00:46:30.849Z,101307.60
2022-10-23T00:47:33.666Z,101308.20
2022-10-23T00:48:36.772Z,101310.72
2022-10-23T00:49:42.656Z,101315.46
2022-10-23T00:50:46.896Z,101314.45
2022-10-23T00:51:56.952Z,101315.73
2022-10-23T00:53:02.364Z,101314.73
2022-10-23T00:55:28.439Z,101316.29
2022-10-23T00:56:33.479Z,101312.98
2022-10-23T00:57:36.257Z,101315.94
2022-10-23T00:58:39.055Z,101312.17
2022-10-23T00:59:42.021Z,101315.37
2022-10-23T01:00:49.236Z,101319.05
2022-10-23T01:01:52.398Z,101320.38
2022-10-23T01:02:56.372Z,101318.23
2022-10-23T01:03:59.816Z,101318.75
2022-10-23T01:05:03.259Z,101319.34
2022-10-23T01:06:29.213Z,101317.35
2022-10-23T01:07:42.893Z,101317.02
2022-10-23T01:08:48.942Z,101316.61
2022-10-23T01:10:03.753Z,101313.01
2022-10-23T01:11:14.983Z,101316.88
2022-10-23T01:12:32.980Z,101318.36
2022-10-23T01:13:38.926Z,101315.55
2022-10-23T01:14:54.860Z,101321.57
2022-10-23T01:16:04.722Z,101320.66
2022-10-23T01:17:16.927Z,101323.31
2022-10-23T01:18:30.204Z,101323.45
2022-10-23T01:19:48.470Z,101323.95
2022-10-23T01:20:55.633Z,101320.01
2022-10-23T01:22:36.949Z,101322.45
2022-10-23T01:23:39.889Z,101322.11
2022-10-23T01:25:11.682Z,101320.50
2022-10-23T01:26:33.841Z,101320.58
2022-10-23T01:27:39.754Z,101323.04
2022-10-23T01:28:42.509Z,101325.84
2022-10-23T01:30:06.477Z,101326.67
2022-10-23T01:31:24.572Z,101323.13
2022-10-23T01:32:36.502Z,101326.48
2022-10-23T01:33:42.087Z,101324.30
2022-10-23T01:34:50.715Z,101327.66
2022-10-23T01:35:58.041Z,101326.92
2022-10-23T01:37:02.508Z,101326.78
2022-10-23T01:38:06.081Z,101325.63
2022-10-23T01:39:14.734Z,101323.89
2022-10-23T01:40:25.080Z,101325.09
2022-10-23T01:41:46.770Z,101322.18
2022-10-23T01:42:56.782Z,101318.11
2022-10-23T01:44:15.972Z,101319.31
2022-10-23T01:45:26.581Z,101323.92
2022-10-23T01:46:30.295Z,101325.29
2022-10-23T01:47:35.749Z,101325.08
2022-10-23T01:48:44.369Z,101323.63
2022-10-23T01:49:48.584Z,101324.70
2022-10-23T01:50:53.822Z,101323.05
2022-10-23T01:51:59.432Z,101322.84
2022-10-23T01:53:03.552Z,101321.14
2022-10-23T01:54:09.293Z,101319.27
2022-10-23T01:55:13.498Z,101322.55
2022-10-23T01:56:19.551Z,101321.00
2022-10-23T01:57:25.479Z,101318.88
2022-10-23T01:58:29.801Z,101322.63
2022-10-23T01:59:36.850Z,101324.41
2022-10-23T02:00:42.721Z,101322.13
2022-10-23T02:01:47.830Z,101321.95
2022-10-23T02:02:51.631Z,101322.33
2022-10-23T02:03:56.123Z,101325.36
2022-10-23T02:05:03.343Z,101324.57
2022-10-23T02:06:06.490Z,101317.46
2022-10-23T02:07:09.401Z,101317.16
2022-10-23T02:08:12.758Z,101312.70
2022-10-23T02:09:16.235Z,101312.20
2022-10-23T02:10:19.831Z,101310.48
2022-10-23T02:11:23.216Z,101312.23
2022-10-23T02:12:29.068Z,101312.57
2022-10-23T02:13:48.646Z,101311.98
2022-10-23T02:15:00.371Z,101315.71
2022-10-23T02:16:12.773Z,101312.39
2022-10-23T02:17:29.469Z,101314.53
2022-10-23T02:18:32.593Z,101318.08
2022-10-23T02:19:35.478Z,101314.39
2022-10-23T02:20:48.369Z,101316.33
2022-10-23T02:22:14.445Z,101316.92
2022-10-23T02:23:21.486Z,101315.58
2022-10-23T02:24:36.254Z,101318.33
2022-10-23T02:25:46.333Z,101313.55
2022-10-23T02:26:54.771Z,101319.08
2022-10-23T02:28:01.946Z,101317.25
2022-10-23T02:29:14.715Z,101318.29
2022-10-23T02:30:19.762Z,101318.45
2022-10-23T02:31:40.244Z,101316.30
2022-10-23T02:32:46.519Z,101315.86
2022-10-23T02:33:50.211Z,101317.90
2022-10-23T02:34:53.181Z,101316.83
2022-10-23T02:35:56.110Z,101318.44
2022-10-23T02:37:00.180Z,101316.55
2022-10-23T02:38:03.160Z,101320.27
2022-10-23T02:39:06.826Z,101321.30
2022-10-23T02:40:10.094Z,101321.79
2022-10-23T02:41:28.175Z,101324.38
2022-10-23T02:42:37.054Z,101323.20
2022-10-23T02:44:00.222Z,101324.16
2022-10-23T02:45:03.062Z,101323.58
2022-10-23T02:46:32.507Z,101323.25
2022-10-23T02:47:40.790Z,101324.52
2022-10-23T02:48:58.496Z,101323.83
2022-10-23T02:50:13.746Z,101328.44
2022-10-23T02:51:22.717Z,101324.42
2022-10-23T02:52:38.170Z,101328.64
2022-10-23T02:53:49.286Z,101326.98
2022-10-23T02:55:07.453Z,101324.78
2022-10-23T02:56:26.440Z,101327.48
2022-10-23T02:57:44.881Z,101325.16
2022-10-23T02:59:08.925Z,101321.95
2022-10-23T03:00:16.149Z,101319.90
2022-10-23T03:01:21.731Z,101323.48
2022-10-23T03:02:26.730Z,101318.63
2022-10-23T03:03:32.119Z,101317.27
2022-10-23T03:04:37.624Z,101319.72
2022-10-23T03:05:41.671Z,101314.38
2022-10-23T03:06:45.300Z,101313.80
2022-10-23T03:07:52.165Z,101316.80
2022-10-23T03:08:58.214Z,101313.69
2022-10-23T03:10:01.623Z,101313.36
2022-10-23T03:11:06.478Z,101313.59
2022-10-23T03:12:09.304Z,101313.48
2022-10-23T03:13:12.746Z,101314.08
2022-10-23T03:14:19.659Z,101316.32
2022-10-23T03:15:22.611Z,101315.33
2022-10-23T03:16:26.440Z,101316.02
2022-10-23T03:17:30.480Z,101318.65
2022-10-23T03:18:35.330Z,101318.20
2022-10-23T03:19:38.533Z,101320.66
2022-10-23T03:20:41.426Z,101322.85
2022-10-23T03:21:44.319Z,101321.20
2022-10-23T03:22:47.148Z,101318.46
2022-10-23T03:23:50.133Z,101316.23
2022-10-23T03:24:55.468Z,101315.52
2022-10-23T03:25:58.334Z,101318.84
2022-10-23T03:27:11.563Z,101317.05
2022-10-23T03:28:14.458Z,101316.55
2022-10-23T03:29:17.406Z,101321.38
2022-10-23T03:30:21.561Z,101316.64
2022-10-23T03:31:26.998Z,101318.30
2022-10-23T03:32:32.690Z,101317.61
2022-10-23T03:33:36.038Z,101321.48
2022-10-23T03:34:46.957Z,101322.20
2022-10-23T03:35:50.044Z,101322.04
2022-10-23T03:36:53.247Z,101321.46
2022-10-23T03:37:56.522Z,101321.50
2022-10-23T03:39:04.072Z,101319.52
2022-10-23T03:40:07.704Z,101319.80
2022-10-23T03:41:10.931Z,101323.84
2022-10-23T03:42:13.833Z,101321.70
2022-10-23T03:43:16.678Z,101323.20
2022-10-23T03:44:19.519Z,101323.00
2022-10-23T03:45:22.569Z,101326.06
2022-10-23T03:46:25.504Z,101326.36
2022-10-23T03:47:30.549Z,101325.32
2022-10-23T03:48:33.572Z,101326.85
2022-10-23T03:49:36.692Z,101330.67
2022-10-23T03:50:41.835Z,101329.42
2022-10-23T03:51:52.005Z,101334.98
2022-10-23T03:52:56.993Z,101336.17
2022-10-23T03:53:59.932Z,101334.61
2022-10-23T03:55:04.124Z,101335.14
2022-10-23T03:56:07.196Z,101333.15
2022-10-23T03:57:10.118Z,101331.78
2022-10-23T03:58:13.021Z,101332.73
2022-10-23T03:59:16.073Z,101336.59
2022-10-23T04:00:18.937Z,101334.68
2022-10-23T04:01:23.729Z,101339.24
2022-10-23T04:02:27.075Z,101334.77
2022-10-23T04:03:30.090Z,101336.34
2022-10-23T04:04:33.209Z,101335.30
2022-10-23T04:05:36.164Z,101336.23
2022-10-23T04:06:40.287Z,101340.36
2022-10-23T04:07:43.341Z,101339.61
2022-10-23T04:08:46.661Z,101337.59
2022-10-23T04:09:52.060Z,101341.38
2022-10-23T04:10:55.161Z,101343.80
2022-10-23T04:12:09.609Z,101347.45
2022-10-23T04:13:12.434Z,101345.39
2022-10-23T04:14:15.347Z,101346.63
2022-10-23T04:15:18.303Z,101345.75
2022-10-23T04:16:22.616Z,101345.92
2022-10-23T04:17:25.539Z,101347.49
2022-10-23T04:18:28.598Z,101346.30
2022-10-23T04:19:31.556Z,101341.64
2022-10-23T04:20:34.528Z,101341.52
2022-10-23T04:21:38.483Z,101344.15
2022-10-23T04:22:41.859Z,101341.74
2022-10-23T04:23:46.369Z,101341.62
2022-10-23T04:24:51.759Z,101338.32
2022-10-23T04:25:58.067Z,101341.56
2022-10-23T04:27:01.713Z,101338.13
2022-10-23T04:28:06.053Z,101342.98
2022-10-23T04:29:13.201Z,101339.88
2022-10-23T04:30:16.280Z,101344.17
2022-10-23T04:31:21.559Z,101351.35
2022-10-23T04:32:24.342Z,101347.86
2022-10-23T04:33:27.339Z,101347.36
2022-10-23T04:34:30.335Z,101348.15
2022-10-23T04:35:33.179Z,101351.88
2022-10-23T04:36:36.134Z,101345.95
2022-10-23T04:37:44.691Z,101352.63
2022-10-23T04:38:48.323Z,101349.39
2022-10-23T04:39:51.211Z,101349.68
2022-10-23T04:40:54.218Z,101344.99
2022-10-23T04:41:58.232Z,101338.83
2022-10-23T04:43:01.571Z,101342.30
2022-10-23T04:44:08.458Z,101343.98
2022-10-23T04:45:14.320Z,101346.88
2022-10-23T04:46:18.301Z,101348.77
2022-10-23T04:47:23.818Z,101347.47
2022-10-23T04:48:33.097Z,101351.31
2022-10-23T04:49:54.843Z,101356.15
2022-10-23T04:51:11.495Z,101354.92
2022-10-23T04:52:27.725Z,101358.39
2022-10-23T04:53:41.471Z,101356.52
2022-10-23T04:54:57.681Z,101356.27
2022-10-23T04:56:12.709Z,101350.46
2022-10-23T04:57:27.290Z,101350.29
2022-10-23T04:58:35.027Z,101350.55
2022-10-23T04:59:37.915Z,101347.90
2022-10-23T05:00:41.253Z,101353.00
2022-10-23T05:01:44.991Z,101351.63
2022-10-23T05:02:49.888Z,101348.69
2022-10-23T05:03:54.137Z,101350.31
2022-10-23T05:04:57.094Z,101354.23
2022-10-23T05:06:11.869Z,101349.09
2022-10-23T05:07:22.962Z,101340.30
2022-10-23T05:08:38.011Z,101340.18
2022-10-23T05:09:58.567Z,101338.12
2022-10-23T05:11:27.605Z,101338.57
2022-10-23T05:12:30.739Z,101339.45
2022-10-23T05:13:34.362Z,101344.31
2022-10-23T05:14:37.178Z,101341.55
2022-10-23T05:17:09.099Z,101339.34
2022-10-23T05:18:15.482Z,101340.48
2022-10-23T05:19:24.289Z,101345.02
2022-10-23T05:20:30.504Z,101339.38
2022-10-23T05:21:35.434Z,101333.52
2022-10-23T05:22:43.188Z,101335.60
2022-10-23T05:23:47.762Z,101341.06
2022-10-23T05:24:53.473Z,101345.79
2022-10-23T05:26:00.582Z,101347.88
2022-10-23T05:27:03.448Z,101350.60
2022-10-23T05:28:07.663Z,101354.04
2022-10-23T05:29:10.681Z,101348.73
2022-10-23T05:30:14.315Z,101351.31
2022-10-23T05:31:18.349Z,101350.48
2022-10-23T05:32:27.721Z,101351.64
2022-10-23T05:33:31.363Z,101357.41
2022-10-23T05:34:35.751Z,101355.77
2022-10-23T05:35:39.632Z,101359.21
2022-10-23T05:36:42.866Z,101361.25
2022-10-23T05:37:47.240Z,101360.13
2022-10-23T05:38:55.400Z,101360.41
2022-10-23T05:39:58.471Z,101359.74
2022-10-23T05:41:02.390Z,101355.90
2022-10-23T05:42:05.267Z,101356.11
2022-10-23T05:43:08.345Z,101355.14
2022-10-23T05:44:22.524Z,101351.96
2022-10-23T05:45:25.630Z,101356.33
2022-10-23T05:46:47.353Z,101355.48
2022-10-23T05:48:05.767Z,101354.24
2022-10-23T05:49:43.045Z,101355.94
2022-10-23T05:51:02.551Z,101357.55
2022-10-23T05:52:16.889Z,101354.40
2022-10-23T05:53:42.686Z,101356.06
2022-10-23T05:54:58.081Z,101353.12
2022-10-23T05:56:37.388Z,101353.54
2022-10-23T05:57:57.920Z,101347.77
2022-10-23T05:59:22.132Z,101348.42
2022-10-23T06:00:49.110Z,101349.46
2022-10-23T06:02:11.983Z,101350.52
2022-10-23T06:03:44.103Z,101352.58
2022-10-23T06:04:47.116Z,101349.36
2022-10-23T06:05:56.045Z,101349.53
2022-10-23T06:07:04.431Z,101350.52
2022-10-23T06:08:07.629Z,101350.93
2022-10-23T06:09:10.517Z,101351.40
2022-10-23T06:10:16.301Z,101350.14
2022-10-23T06:11:21.645Z,101349.90
2022-10-23T06:12:34.241Z,101349.81
2022-10-23T06:13:37.513Z,101347.58
2022-10-23T06:14:40.695Z,101352.17
2022-10-23T06:15:43.698Z,101351.05
2022-10-23T06:16:52.644Z,101355.29
2022-10-23T06:18:00.019Z,101354.45
2022-10-23T06:19:03.616Z,101351.80
2022-10-23T06:20:06.921Z,101349.83
2022-10-23T06:21:12.351Z,101352.70
2022-10-23T06:22:15.706Z,101351.30
2022-10-23T06:23:25.412Z,101354.60
2022-10-23T06:24:50.823Z,101354.27
2022-10-23T06:26:00.561Z,101351.11
2022-10-23T06:27:10.035Z,101347.24
2022-10-23T06:28:20.903Z,101346.25
2022-10-23T06:29:24.705Z,101347.86
2022-10-23T06:30:27.679Z,101346.37
2022-10-23T06:31:30.818Z,101347.92
2022-10-23T06:32:33.786Z,101341.55
2022-10-23T06:33:46.280Z,101345.53
2022-10-23T06:34:49.116Z,101345.61
2022-10-23T06:35:51.931Z,101345.70
2022-10-23T06:36:54.746Z,101346.77
2022-10-23T06:38:10.790Z,101351.93
2022-10-23T06:39:17.506Z,101354.80
2022-10-23T06:40:38.854Z,101354.39
2022-10-23T06:41:44.462Z,101351.31
2022-10-23T06:42:52.699Z,101352.84
2022-10-23T06:44:27.801Z,101348.90
2022-10-23T06:45:35.214Z,101349.98
2022-10-23T06:46:51.491Z,101346.34
2022-10-23T06:48:12.985Z,101349.48
2022-10-23T06:49:40.752Z,101352.23
2022-10-23T06:50:43.593Z,101352.86
2022-10-23T06:51:50.779Z,101355.27
2022-10-23T06:52:57.237Z,101356.74
2022-10-23T06:54:00.438Z,101357.02
2022-10-23T06:55:23.100Z,101357.27
2022-10-23T06:56:29.371Z,101361.63
2022-10-23T06:57:33.620Z,101364.30
2022-10-23T06:58:37.526Z,101364.66
2022-10-23T06:59:47.475Z,101367.36
2022-10-23T07:00:52.016Z,101368.59
2022-10-23T07:03:03.724Z,101365.90
2022-10-23T07:04:06.567Z,101368.08
2022-10-23T07:05:12.773Z,101366.50
2022-10-23T07:06:17.718Z,101365.37
2022-10-23T07:07:20.700Z,101364.88
2022-10-23T07:08:24.985Z,101364.99
2022-10-23T07:09:28.722Z,101362.90
2022-10-23T07:10:31.525Z,101361.77
2022-10-23T07:11:36.998Z,101363.48
2022-10-23T07:12:40.006Z,101360.32
2022-10-23T07:14:15.157Z,101360.27
2022-10-23T07:15:18.442Z,101358.20
2022-10-23T07:16:22.216Z,101361.71
2022-10-23T07:17:26.411Z,101359.30
2022-10-23T07:18:29.357Z,101360.30
2022-10-23T07:19:52.109Z,101360.61
2022-10-23T07:20:58.982Z,101359.11
2022-10-23T07:22:01.954Z,101364.28
2022-10-23T07:23:17.424Z,101362.73
2022-10-23T07:24:21.052Z,101363.00
2022-10-23T07:25:25.368Z,101362.61
2022-10-23T07:26:29.436Z,101362.47
2022-10-23T07:27:35.903Z,101365.02
2022-10-23T07:28:39.004Z,101367.95
2022-10-23T07:29:42.205Z,101367.86
2022-10-23T07:30:45.392Z,101362.87
2022-10-23T07:31:48.778Z,101366.23
2022-10-23T07:33:01.376Z,101364.65
2022-10-23T07:34:14.354Z,101365.02
2022-10-23T07:35:18.193Z,101364.27
2022-10-23T07:36:30.850Z,101362.23
2022-10-23T07:37:33.970Z,101364.01
2022-10-23T07:38:38.842Z,101359.56
2022-10-23T07:39:42.615Z,101360.68
2022-10-23T07:40:46.022Z,101359.67
2022-10-23T07:41:51.192Z,101362.69
2022-10-23T07:42:54.407Z,101362.76
2022-10-23T07:43:57.440Z,101362.67
2022-10-23T07:45:01.119Z,101361.05
2022-10-23T07:46:04.961Z,101361.46
2022-10-23T07:47:11.565Z,101358.59
2022-10-23T07:48:16.895Z,101364.05
2022-10-23T07:49:34.994Z,101365.18
2022-10-23T07:50:38.713Z,101365.66
2022-10-23T07:51:42.004Z,101363.70
2022-10-23T07:52:45.652Z,101366.84
2022-10-23T07:53:52.330Z,101364.49
2022-10-23T07:55:09.351Z,101361.41
2022-10-23T07:56:20.572Z,101359.52
2022-10-23T07:57:49.497Z,101356.80
2022-10-23T07:59:15.591Z,101358.89
2022-10-23T08:01:38.181Z,101359.68
2022-10-23T08:02:41.970Z,101363.22
2022-10-23T08:03:46.023Z,101360.39
2022-10-23T08:04:50.230Z,101365.11
2022-10-23T08:06:00.222Z,101362.04
2022-10-23T08:07:04.658Z,101365.13
2022-10-23T08:08:12.972Z,101364.74
2022-10-23T08:09:16.449Z,101365.17
2022-10-23T08:10:20.215Z,101366.06
2022-10-23T08:11:28.984Z,101370.39
2022-10-23T08:12:32.211Z,101364.60
2022-10-23T08:13:35.499Z,101363.94
2022-10-23T08:14:40.712Z,101364.18
2022-10-23T08:15:46.756Z,101365.39
2022-10-23T08:17:09.991Z,101363.40
2022-10-23T08:18:49.653Z,101366.91
2022-10-23T08:19:53.156Z,101366.80
2022-10-23T08:21:00.719Z,101367.21
2022-10-23T08:22:04.081Z,101365.85
2022-10-23T08:23:07.327Z,101366.59
2022-10-23T08:24:13.888Z,101367.86
2022-10-23T08:25:21.861Z,101367.33
2022-10-23T08:26:31.860Z,101367.85
2022-10-23T08:27:34.846Z,101370.44
2022-10-23T08:28:38.239Z,101370.60
2022-10-23T08:29:41.435Z,101372.92
2022-10-23T08:30:44.855Z,101371.92
2022-10-23T08:31:48.555Z,101372.95
2022-10-23T08:33:10.565Z,101373.88
2022-10-23T08:34:24.831Z,101370.41
2022-10-23T08:35:38.876Z,101368.27
2022-10-23T08:36:46.919Z,101370.25
2022-10-23T08:37:51.486Z,101374.55
2022-10-23T08:39:06.579Z,101376.02
2022-10-23T08:40:23.682Z,101377.36
2022-10-23T08:41:55.651Z,101382.05
2022-10-23T08:43:12.693Z,101384.09
2022-10-23T08:44:26.358Z,101381.43
2022-10-23T08:45:29.548Z,101388.77
2022-10-23T08:46:42.142Z,101387.80
2022-10-23T08:48:25.347Z,101389.17
2022-10-23T08:49:59.876Z,101388.64
2022-10-23T08:51:07.831Z,101389.39
2022-10-23T08:52:21.706Z,101391.39
2022-10-23T08:53:31.409Z,101393.39
2022-10-23T08:54:43.425Z,101391.35
2022-10-23T08:55:49.791Z,101388.27
2022-10-23T08:56:57.372Z,101390.16
2022-10-23T08:58:18.454Z,101392.11
2022-10-23T08:59:32.984Z,101393.39
2022-10-23T09:00:35.956Z,101396.92
2022-10-23T09:01:43.154Z,101393.04
2022-10-23T09:02:48.655Z,101393.34
2022-10-23T09:03:51.744Z,101398.98
2022-10-23T09:04:55.901Z,101398.95
2022-10-23T09:06:01.875Z,101397.71
2022-10-23T09:07:16.997Z,101397.10
2022-10-23T09:08:19.897Z,101398.54
2022-10-23T09:09:28.664Z,101400.29
2022-10-23T09:10:55.027Z,101401.27
2022-10-23T09:12:09.493Z,101399.45
2022-10-23T09:13:21.067Z,101401.19
2022-10-23T09:14:29.954Z,101399.82
2022-10-23T09:15:42.371Z,101401.50
2022-10-23T09:17:00.270Z,101404.60
2022-10-23T09:18:11.394Z,101408.08
2022-10-23T09:19:19.781Z,101406.89
2022-10-23T09:20:28.275Z,101413.48
2022-10-23T09:21:32.615Z,101410.11
2022-10-23T09:22:35.551Z,101407.71
2022-10-23T09:23:38.433Z,101409.73
2022-10-23T09:24:42.951Z,101413.86
2022-10-23T09:25:46.587Z,101413.52
2022-10-23T09:26:51.278Z,101411.73
2022-10-23T09:27:57.336Z,101414.32
2022-10-23T09:29:15.608Z,101416.73
2022-10-23T09:30:25.748Z,101412.59
2022-10-23T09:31:28.648Z,101416.65
2022-10-23T09:32:38.008Z,101415.47
2022-10-23T09:33:41.319Z,101416.66
2022-10-23T09:34:52.432Z,101413.02
2022-10-23T09:35:55.419Z,101414.62
2022-10-23T09:36:59.791Z,101414.19
2022-10-23T09:38:03.019Z,101415.85
2022-10-23T09:39:21.131Z,101415.39
2022-10-23T09:40:26.865Z,101416.70
2022-10-23T09:41:31.006Z,101417.59
2022-10-23T09:42:34.030Z,101413.33
2022-10-23T09:43:37.187Z,101417.70
2022-10-23T09:44:48.528Z,101415.22
2022-10-23T09:46:20.667Z,101414.58
2022-10-23T09:47:24.972Z,101421.46
2022-10-23T09:48:27.893Z,101419.66
2022-10-23T09:49:31.939Z,101422.15
2022-10-23T09:50:34.917Z,101422.60
2022-10-23T09:51:41.908Z,101423.96
2022-10-23T09:52:44.864Z,101427.11
2022-10-23T09:53:51.105Z,101427.70
2022-10-23T09:54:55.860Z,101428.36
2022-10-23T09:56:22.341Z,101430.65
2022-10-23T09:57:30.158Z,101429.35
2022-10-23T09:58:38.262Z,101430.13
2022-10-23T09:59:42.004Z,101430.43
2022-10-23T10:00:51.070Z,101425.85
2022-10-23T10:01:58.189Z,101427.94
2022-10-23T10:03:24.609Z,101428.47
2022-10-23T10:04:42.087Z,101431.77
2022-10-23T10:05:53.101Z,101432.63
2022-10-23T10:06:59.640Z,101435.04
2022-10-23T10:08:20.657Z,101437.60
2022-10-23T10:09:23.780Z,101438.29
2022-10-23T10:10:28.957Z,101436.83
2022-10-23T10:11:44.125Z,101432.90
2022-10-23T10:12:51.296Z,101430.48
2022-10-23T10:13:54.213Z,101430.38
2022-10-23T10:14:57.130Z,101436.30
2022-10-23T10:16:20.258Z,101434.48
2022-10-23T10:17:58.695Z,101437.52
2022-10-23T10:19:20.504Z,101440.92
2022-10-23T10:20:29.034Z,101437.73
2022-10-23T10:21:54.619Z,101437.25
2022-10-23T10:23:00.276Z,101435.23
2022-10-23T10:24:07.301Z,101438.17
2022-10-23T10:25:10.316Z,101438.35
2022-10-23T10:26:35.112Z,101438.21
2022-10-23T10:27:38.490Z,101436.40
2022-10-23T10:29:06.019Z,101439.86
2022-10-23T10:30:34.163Z,101439.66
2022-10-23T10:31:48.159Z,101438.77
2022-10-23T10:32:55.135Z,101437.87
2022-10-23T10:34:07.127Z,101437.90
2022-10-23T10:35:19.542Z,101439.50
2022-10-23T10:36:40.806Z,101444.42
2022-10-23T10:37:45.966Z,101443.13
2022-10-23T10:38:54.770Z,101446.44
2022-10-23T10:40:03.464Z,101446.39
2022-10-23T10:41:06.453Z,101443.73
2022-10-23T10:42:18.764Z,101449.77
2022-10-23T10:43:40.578Z,101449.55
2022-10-23T10:44:46.590Z,101451.03
2022-10-23T10:45:53.775Z,101453.90
2022-10-23T10:46:59.909Z,101454.67
2022-10-23T10:48:07.362Z,101454.56
2022-10-23T10:49:37.255Z,101459.45
2022-10-23T10:51:04.273Z,101458.94
2022-10-23T10:52:29.079Z,101461.51
2022-10-23T10:53:45.199Z,101459.08
2022-10-23T10:54:56.086Z,101460.27
2022-10-23T10:56:02.124Z,101459.04
2022-10-23T10:57:09.515Z,101455.67
2022-10-23T10:58:51.179Z,101458.19
2022-10-23T10:59:55.932Z,101454.93
2022-10-23T11:01:01.671Z,101456.14
2022-10-23T11:02:23.308Z,101452.73
2022-10-23T11:03:44.657Z,101453.35
2022-10-23T11:04:53.215Z,101455.77
2022-10-23T11:07:08.219Z,101456.89
2022-10-23T11:08:11.228Z,101460.09
2022-10-23T11:09:34.476Z,101457.94
2022-10-23T11:10:39.438Z,101454.91
2022-10-23T11:11:42.403Z,101458.08
2022-10-23T11:12:46.511Z,101459.14
2022-10-23T11:13:51.616Z,101459.09
2022-10-23T11:14:56.032Z,101460.95
2022-10-23T11:16:11.380Z,101459.17
2022-10-23T11:17:36.720Z,101460.88
2022-10-23T11:18:42.129Z,101459.90
2022-10-23T11:19:57.840Z,101458.17
2022-10-23T11:21:19.021Z,101458.73
2022-10-23T11:22:26.364Z,101456.73
2022-10-23T11:23:35.011Z,101455.17
2022-10-23T11:24:43.149Z,101455.70
2022-10-23T11:26:13.342Z,101451.91
2022-10-23T11:27:23.629Z,101451.44
2022-10-23T11:28:38.921Z,101453.43
2022-10-23T11:29:48.250Z,101453.10
2022-10-23T11:30:57.659Z,101457.36
2022-10-23T11:32:15.728Z,101456.63
2022-10-23T11:33:39.280Z,101456.23
2022-10-23T11:34:44.312Z,101455.13
2022-10-23T11:36:00.685Z,101456.71
2022-10-23T11:37:05.074Z,101454.17
2022-10-23T11:38:28.673Z,101455.59
2022-10-23T11:39:33.567Z,101458.55
2022-10-23T11:41:58.571Z,101457.85
2022-10-23T11:43:01.545Z,101455.66
2022-10-23T11:44:24.399Z,101451.44
2022-10-23T11:45:27.564Z,101449.30
2022-10-23T11:46:32.597Z,101446.35
2022-10-23T11:47:40.088Z,101443.09
2022-10-23T11:48:44.609Z,101442.70
2022-10-23T11:49:47.686Z,101447.66
2022-10-23T11:50:53.615Z,101447.89
2022-10-23T11:52:00.414Z,101452.63
2022-10-23T11:53:14.641Z,101449.28
2022-10-23T11:54:26.105Z,101449.38
2022-10-23T11:55:30.917Z,101449.98
2022-10-23T11:56:34.296Z,101451.10
2022-10-23T11:57:37.226Z,101448.95
2022-10-23T11:58:40.118Z,101452.31
2022-10-23T11:59:45.753Z,101445.85
2022-10-23T12:01:06.568Z,101444.05
2022-10-23T12:02:21.813Z,101445.10
2022-10-23T12:03:28.839Z,101441.52
2022-10-23T12:04:46.459Z,101439.88
2022-10-23T12:05:56.611Z,101438.12
2022-10-23T12:07:04.932Z,101439.17
2022-10-23T12:08:19.732Z,101436.45
2022-10-23T12:09:25.450Z,101436.73
2022-10-23T12:10:45.972Z,101432.95
2022-10-23T12:11:51.417Z,101432.33
2022-10-23T12:12:56.671Z,101434.27
2022-10-23T12:14:00.431Z,101431.20
2022-10-23T12:15:14.664Z,101433.29
2022-10-23T12:16:17.754Z,101432.81
2022-10-23T12:17:23.800Z,101436.25
2022-10-23T12:18:27.882Z,101437.10
2022-10-23T12:19:43.264Z,101440.11
2022-10-23T12:20:49.407Z,101428.89
2022-10-23T12:21:57.690Z,101430.71
2022-10-23T12:23:06.223Z,101433.52
2022-10-23T12:24:39.416Z,101438.83
2022-10-23T12:25:45.396Z,101441.84
2022-10-23T12:27:01.917Z,101441.45
2022-10-23T12:28:14.963Z,101441.05
2022-10-23T12:29:40.893Z,101440.17
2022-10-23T12:30:56.683Z,101441.58
2022-10-23T12:32:08.814Z,101444.52
2022-10-23T12:33:16.629Z,101445.05
2022-10-23T12:34:38.359Z,101444.64
2022-10-23T12:35:53.761Z,101445.17
2022-10-23T12:36:56.922Z,101441.10
2022-10-23T12:38:12.371Z,101446.27
2022-10-23T12:39:41.876Z,101436.84
2022-10-23T12:40:55.634Z,101442.83
2022-10-23T12:42:00.010Z,101439.69
2022-10-23T12:43:21.629Z,101438.92
2022-10-23T12:44:27.983Z,101431.90
2022-10-23T12:45:36.999Z,101431.10
2022-10-23T12:46:41.127Z,101428.95
2022-10-23T12:47:45.919Z,101428.91
2022-10-23T12:48:50.018Z,101426.73
2022-10-23T12:49:53.085Z,101427.39
2022-10-23T12:50:56.588Z,101427.44
2022-10-23T12:52:02.166Z,101425.16
2022-10-23T12:53:07.829Z,101426.63
2022-10-23T12:54:16.285Z,101428.65
2022-10-23T12:55:20.270Z,101425.62
2022-10-23T12:56:33.010Z,101424.14
2022-10-23T12:57:42.002Z,101423.38
2022-10-23T12:58:56.812Z,101421.64
2022-10-23T13:00:10.416Z,101419.30
2022-10-23T13:01:21.771Z,101419.01
2022-10-23T13:02:27.078Z,101417.98
2022-10-23T13:03:31.197Z,101416.12
2022-10-23T13:04:35.494Z,101413.98
2022-10-23T13:05:38.753Z,101418.28
2022-10-23T13:06:42.159Z,101417.52
2022-10-23T13:07:47.227Z,101419.45
2022-10-23T13:08:52.440Z,101423.41
2022-10-23T13:10:06.026Z,101422.48
2022-10-23T13:11:15.558Z,101426.60
2022-10-23T13:12:22.463Z,101431.93